createdAt,value
2022-09-02T00:01:25.589Z,77.90
2022-09-02T00:03:57.445Z,77.90
2022-09-02T00:06:25.727Z,77.70
2022-09-02T00:08:52.942Z,77.90
2022-09-02T00:11:23.809Z,78.10
2022-09-02T00:13:51.719Z,78.20
2022-09-02T00:16:19.808Z,77.80
2022-09-02T00:18:48.399Z,78.00
2022-09-02T00:21:16.244Z,77.90
2022-09-02T00:23:44.657Z,78.20
2022-09-02T00:26:13.707Z,78.00
2022-09-02T00:28:42.525Z,78.30
2022-09-02T00:31:17.679Z,78.50
2022-09-02T00:33:45.158Z,78.50
2022-09-02T00:36:13.023Z,78.30
2022-09-02T00:38:40.632Z,78.70
2022-09-02T00:41:11.025Z,78.60
2022-09-02T00:43:46.555Z,78.70
2022-09-02T00:46:16.927Z,78.70
2022-09-02T00:48:55.722Z,79.00
2022-09-02T00:51:24.460Z,79.00
2022-09-02T00:53:51.904Z,79.20
2022-09-02T00:56:23.248Z,79.30
2022-09-02T00:58:52.113Z,79.30
2022-09-02T01:01:22.571Z,79.50
2022-09-02T01:03:51.277Z,79.70
2022-09-02T01:06:24.407Z,79.80
2022-09-02T01:09:01.589Z,79.70
2022-09-02T01:11:37.566Z,80.20
2022-09-02T01:14:07.201Z,80.00
2022-09-02T01:16:46.422Z,80.30
2022-09-02T01:19:26.893Z,80.30
2022-09-02T01:21:56.439Z,88.60
2022-09-02T01:24:27.866Z,80.90
2022-09-02T01:26:57.040Z,80.60
2022-09-02T01:29:27.177Z,81.20
2022-09-02T01:31:55.298Z,81.10
2022-09-02T01:34:22.866Z,81.00
2022-09-02T01:36:50.437Z,81.10
2022-09-02T01:39:17.756Z,81.30
2022-09-02T01:41:45.680Z,81.20
2022-09-02T01:44:14.587Z,81.30
2022-09-02T01:46:42.218Z,81.50
2022-09-02T01:49:09.926Z,81.20
2022-09-02T01:51:38.154Z,80.80
2022-09-02T01:54:06.611Z,81.30
2022-09-02T01:56:34.577Z,81.10
2022-09-02T01:59:03.029Z,80.60
2022-09-02T02:01:30.933Z,80.90
2022-09-02T02:03:58.212Z,80.80
2022-09-02T02:06:25.494Z,81.00
2022-09-02T02:08:55.154Z,81.10
2022-09-02T02:11:25.358Z,81.00
2022-09-02T02:13:59.759Z,81.00
2022-09-02T02:16:27.279Z,80.60
2022-09-02T02:18:54.592Z,81.00
2022-09-02T02:21:22.060Z,81.20
2022-09-02T02:23:51.832Z,81.30
2022-09-02T02:26:18.975Z,81.20
2022-09-02T02:28:49.007Z,81.20
2022-09-02T02:31:16.752Z,80.90
2022-09-02T02:33:44.667Z,81.10
2022-09-02T02:36:12.815Z,81.10
2022-09-02T02:38:40.391Z,81.00
2022-09-02T02:41:09.717Z,81.30
2022-09-02T02:43:37.605Z,81.20
2022-09-02T02:46:06.070Z,81.40
2022-09-02T02:48:34.598Z,81.50
2022-09-02T02:51:02.745Z,81.60
2022-09-02T02:53:31.434Z,81.40
2022-09-02T02:55:59.605Z,81.70
2022-09-02T02:58:27.024Z,81.50
2022-09-02T03:00:58.708Z,82.00
2022-09-02T03:03:26.297Z,81.80
2022-09-02T03:05:55.714Z,82.20
2022-09-02T03:08:25.815Z,81.90
2022-09-02T03:10:55.606Z,82.20
2022-09-02T03:13:26.975Z,82.00
2022-09-02T03:15:57.180Z,82.70
2022-09-02T03:18:24.572Z,82.70
2022-09-02T03:20:52.905Z,82.40
2022-09-02T03:23:20.412Z,82.40
2022-09-02T03:25:50.482Z,82.80
2022-09-02T03:28:27.469Z,83.00
2022-09-02T03:30:55.517Z,83.50
2022-09-02T03:33:23.791Z,82.50
2022-09-02T03:35:51.688Z,83.10
2022-09-02T03:38:19.104Z,83.00
2022-09-02T03:40:46.400Z,82.80
2022-09-02T03:43:13.932Z,84.00
2022-09-02T03:45:42.259Z,83.90
2022-09-02T03:48:13.542Z,83.60
2022-09-02T03:50:44.681Z,84.40
2022-09-02T03:53:19.589Z,84.10
2022-09-02T03:55:56.203Z,84.00
2022-09-02T03:58:26.071Z,84.30
2022-09-02T04:00:55.692Z,84.20
2022-09-02T04:03:24.933Z,84.20
2022-09-02T04:05:52.650Z,84.00
2022-09-02T04:08:22.957Z,85.30
2022-09-02T04:10:52.477Z,84.30
2022-09-02T04:13:19.954Z,84.60
2022-09-02T04:15:49.341Z,84.50
2022-09-02T04:18:20.088Z,85.50
2022-09-02T04:20:47.470Z,84.90
2022-09-02T04:23:15.775Z,85.20
2022-09-02T04:25:45.157Z,85.30
2022-09-02T04:28:15.240Z,86.30
2022-09-02T04:30:43.266Z,86.20
2022-09-02T04:33:12.394Z,86.10
2022-09-02T04:35:44.472Z,86.50
2022-09-02T04:38:13.682Z,86.30
2022-09-02T04:40:42.822Z,86.30
2022-09-02T04:43:11.266Z,86.70
2022-09-02T04:45:44.327Z,86.70
2022-09-02T04:48:13.522Z,87.10
2022-09-02T04:50:42.164Z,87.20
2022-09-02T04:53:10.318Z,87.50
2022-09-02T04:55:42.313Z,87.40
2022-09-02T04:58:12.598Z,87.20
2022-09-02T05:00:42.512Z,87.60
2022-09-02T05:03:12.249Z,87.70
2022-09-02T05:05:42.115Z,87.10
2022-09-02T05:08:13.352Z,87.40
2022-09-02T05:10:43.592Z,86.90
2022-09-02T05:13:11.372Z,87.40
2022-09-02T05:15:40.903Z,88.10
2022-09-02T05:18:10.094Z,88.20
2022-09-02T05:20:40.080Z,87.60
2022-09-02T05:23:07.881Z,88.10
2022-09-02T05:25:36.252Z,88.40
2022-09-02T05:28:04.960Z,88.10
2022-09-02T05:30:32.808Z,88.20
2022-09-02T05:33:00.424Z,88.20
2022-09-02T05:35:29.492Z,88.00
2022-09-02T05:38:00.732Z,87.60
2022-09-02T05:40:29.178Z,87.80
2022-09-02T05:42:57.432Z,87.70
2022-09-02T05:45:24.758Z,88.00
2022-09-02T05:47:52.773Z,87.70
2022-09-02T05:50:20.643Z,88.10
2022-09-02T05:52:52.391Z,87.70
2022-09-02T05:55:21.468Z,88.00
2022-09-02T05:57:49.573Z,88.00
2022-09-02T06:00:18.208Z,88.50
2022-09-02T06:02:57.497Z,87.60
2022-09-02T06:05:29.626Z,87.60
2022-09-02T06:08:05.738Z,87.90
2022-09-02T06:10:33.948Z,88.10
2022-09-02T06:13:01.848Z,87.90
2022-09-02T06:15:33.015Z,87.80
2022-09-02T06:18:02.546Z,87.90
2022-09-02T06:20:32.657Z,87.90
2022-09-02T06:23:01.523Z,88.50
2022-09-02T06:25:28.737Z,88.20
2022-09-02T06:27:56.316Z,88.10
2022-09-02T06:30:24.228Z,88.00
2022-09-02T06:32:51.719Z,87.80
2022-09-02T06:35:20.341Z,88.00
2022-09-02T06:37:47.952Z,87.80
2022-09-02T06:40:15.636Z,88.10
2022-09-02T06:42:43.235Z,87.70
2022-09-02T06:45:21.271Z,88.30
2022-09-02T06:47:48.958Z,88.50
2022-09-02T06:50:16.589Z,87.20
2022-09-02T06:52:44.104Z,86.60
2022-09-02T06:55:13.992Z,86.00
2022-09-02T06:57:41.230Z,86.10
2022-09-02T07:00:12.509Z,86.00
2022-09-02T07:02:40.937Z,86.00
2022-09-02T07:05:10.094Z,85.30
2022-09-02T07:07:40.241Z,85.10
2022-09-02T07:10:13.335Z,85.10
2022-09-02T07:12:44.436Z,85.10
2022-09-02T07:15:15.138Z,85.30
2022-09-02T07:17:43.757Z,85.70
2022-09-02T07:20:16.505Z,85.40
2022-09-02T07:22:57.151Z,85.20
2022-09-02T07:25:27.158Z,84.70
2022-09-02T07:27:54.783Z,84.70
2022-09-02T07:30:23.308Z,84.50
2022-09-02T07:32:57.300Z,84.40
2022-09-02T07:35:27.454Z,84.60
2022-09-02T07:37:55.877Z,84.40
2022-09-02T07:40:23.614Z,84.00
2022-09-02T07:42:52.416Z,83.70
2022-09-02T07:45:22.194Z,83.80
2022-09-02T07:47:50.016Z,83.70
2022-09-02T07:50:20.391Z,83.90
2022-09-02T07:52:57.894Z,83.30
2022-09-02T07:55:27.538Z,83.60
2022-09-02T07:57:55.405Z,83.30
2022-09-02T08:00:27.554Z,83.20
2022-09-02T08:02:58.478Z,83.40
2022-09-02T08:05:32.983Z,82.50
2022-09-02T08:08:00.538Z,82.40
2022-09-02T08:10:29.584Z,83.10
2022-09-02T08:13:00.823Z,83.00
2022-09-02T08:15:30.226Z,83.30
2022-09-02T08:17:58.117Z,83.20
2022-09-02T08:20:26.196Z,83.40
2022-09-02T08:23:05.059Z,83.20
2022-09-02T08:25:40.803Z,83.20
2022-09-02T08:28:08.524Z,82.70
2022-09-02T08:30:35.979Z,82.60
2022-09-02T08:33:03.195Z,83.00
2022-09-02T08:35:30.788Z,83.00
2022-09-02T08:38:00.025Z,82.70
2022-09-02T08:40:40.334Z,81.80
2022-09-02T08:43:27.851Z,81.90
2022-09-02T08:46:00.667Z,82.60
2022-09-02T08:48:49.432Z,81.80
2022-09-02T08:51:24.223Z,82.80
2022-09-02T08:54:03.320Z,80.50
2022-09-02T08:56:31.664Z,80.50
2022-09-02T08:59:03.755Z,80.50
2022-09-02T09:01:50.918Z,81.00
2022-09-02T09:04:27.112Z,80.40
2022-09-02T09:07:14.990Z,80.50
2022-09-02T09:10:05.191Z,80.10
2022-09-02T09:12:44.225Z,79.90
2022-09-02T09:15:13.977Z,80.40
2022-09-02T09:18:00.117Z,79.90
2022-09-02T09:20:31.215Z,79.30
2022-09-02T09:23:00.933Z,79.80
2022-09-02T09:25:32.550Z,79.30
2022-09-02T09:28:00.804Z,78.60
2022-09-02T09:30:29.415Z,79.30
2022-09-02T09:33:00.287Z,78.80
2022-09-02T09:35:46.504Z,78.60
2022-09-02T09:38:14.269Z,78.80
2022-09-02T09:40:41.669Z,78.70
2022-09-02T09:43:14.394Z,78.30
2022-09-02T09:45:51.412Z,78.20
2022-09-02T09:48:30.831Z,78.10
2022-09-02T09:50:58.246Z,78.30
2022-09-02T09:53:31.117Z,78.60
2022-09-02T09:56:14.031Z,79.80
2022-09-02T09:58:41.300Z,78.10
2022-09-02T10:01:33.028Z,78.90
2022-09-02T10:04:02.992Z,78.20
2022-09-02T10:06:33.404Z,77.90
2022-09-02T10:09:14.594Z,77.90
2022-09-02T10:12:00.047Z,78.60
2022-09-02T10:14:37.283Z,78.80
2022-09-02T10:17:19.374Z,78.40
2022-09-02T10:20:05.625Z,77.60
2022-09-02T10:22:58.748Z,77.30
2022-09-02T10:26:00.266Z,77.30
2022-09-02T10:28:36.280Z,78.70
2022-09-02T10:31:20.662Z,78.20
2022-09-02T10:33:48.076Z,78.60
2022-09-02T10:36:34.963Z,77.60
2022-09-02T10:39:17.887Z,77.60
2022-09-02T10:41:46.681Z,77.70
2022-09-02T10:44:41.373Z,77.40
2022-09-02T10:47:30.188Z,78.40
2022-09-02T10:50:14.795Z,77.60
2022-09-02T10:53:12.623Z,77.80
2022-09-02T10:55:54.947Z,78.10
2022-09-02T10:58:34.422Z,77.40
2022-09-02T11:01:03.431Z,76.20
2022-09-02T11:03:38.736Z,77.60
2022-09-02T11:06:23.075Z,77.20
2022-09-02T11:08:54.253Z,76.60
2022-09-02T11:11:40.441Z,76.70
2022-09-02T11:14:35.061Z,78.00
2022-09-02T11:17:32.923Z,78.20
2022-09-02T11:20:14.719Z,76.70
2022-09-02T11:23:13.909Z,77.70
2022-09-02T11:26:05.614Z,75.60
2022-09-02T11:28:44.019Z,76.10
2022-09-02T11:31:27.984Z,75.60
2022-09-02T11:34:13.364Z,75.50
2022-09-02T11:36:40.711Z,76.20
2022-09-02T11:39:36.448Z,76.60
2022-09-02T11:42:21.043Z,76.00
2022-09-02T11:45:03.846Z,75.50
2022-09-02T11:48:08.430Z,74.20
2022-09-02T11:51:00.714Z,71.60
2022-09-02T11:53:37.328Z,72.70
2022-09-02T11:56:20.851Z,72.10
2022-09-02T11:58:53.025Z,71.50
2022-09-02T12:01:27.949Z,71.00
2022-09-02T12:04:55.911Z,71.90
2022-09-02T12:07:09.074Z,72.40
2022-09-02T12:09:51.498Z,71.50
2022-09-02T12:12:36.923Z,72.30
2022-09-02T12:15:05.490Z,72.20
2022-09-02T12:18:04.623Z,71.00
2022-09-02T12:20:38.871Z,71.10
2022-09-02T12:23:09.071Z,71.20
2022-09-02T12:26:08.031Z,70.30
2022-09-02T12:28:35.312Z,69.30
2022-09-02T12:31:07.634Z,70.80
2022-09-02T12:33:38.014Z,70.40
2022-09-02T12:36:07.028Z,70.30
2022-09-02T12:38:36.999Z,70.00
2022-09-02T12:41:12.340Z,69.50
2022-09-02T12:43:47.975Z,70.10
2022-09-02T12:46:44.876Z,70.60
2022-09-02T12:49:50.431Z,69.30
2022-09-02T12:52:40.821Z,68.80
2022-09-02T12:55:30.277Z,69.20
2022-09-02T12:58:16.814Z,69.10
2022-09-02T13:00:46.894Z,69.30
2022-09-02T13:03:32.900Z,70.10
2022-09-02T13:06:47.717Z,69.60
2022-09-02T13:09:33.666Z,71.00
2022-09-02T13:12:15.425Z,71.90
2022-09-02T13:15:09.874Z,71.80
2022-09-02T13:17:54.863Z,70.90
2022-09-02T13:20:43.737Z,71.30
2022-09-02T13:23:31.963Z,71.70
2022-09-02T13:26:48.493Z,70.90
2022-09-02T13:30:02.391Z,70.70
2022-09-02T13:32:32.652Z,70.00
2022-09-02T13:35:04.514Z,70.40
2022-09-02T13:37:43.396Z,69.50
2022-09-02T13:40:26.698Z,67.90
2022-09-02T13:42:58.975Z,67.60
2022-09-02T13:45:28.668Z,68.90
2022-09-02T13:48:02.127Z,69.40
2022-09-02T13:50:31.591Z,68.70
2022-09-02T13:55:52.860Z,67.50
2022-09-02T13:58:31.196Z,67.20
2022-09-02T14:01:17.912Z,68.60
2022-09-02T14:03:51.561Z,68.90
2022-09-02T14:06:25.530Z,69.30
2022-09-02T14:08:58.609Z,68.60
2022-09-02T14:11:27.887Z,67.90
2022-09-02T14:13:56.283Z,68.00
2022-09-02T14:16:41.544Z,66.90
2022-09-02T14:19:17.417Z,66.70
2022-09-02T14:21:56.636Z,66.40
2022-09-02T14:24:29.472Z,66.80
2022-09-02T14:26:58.468Z,66.20
2022-09-02T14:29:28.366Z,66.10
2022-09-02T14:32:13.034Z,66.70
2022-09-02T14:34:44.951Z,67.10
2022-09-02T14:37:21.901Z,67.00
2022-09-02T14:40:12.935Z,67.40
2022-09-02T14:42:52.708Z,65.90
2022-09-02T14:45:32.365Z,65.50
2022-09-02T14:48:03.158Z,66.40
2022-09-02T14:50:36.647Z,66.00
2022-09-02T14:53:09.465Z,65.30
2022-09-02T14:55:52.818Z,64.70
2022-09-02T14:58:24.877Z,65.00
2022-09-02T15:01:00.017Z,65.90
2022-09-02T15:03:29.668Z,65.70
2022-09-02T15:05:57.280Z,65.40
2022-09-02T15:08:25.005Z,65.30
2022-09-02T15:10:53.946Z,64.60
2022-09-02T15:13:30.307Z,65.00
2022-09-02T15:15:58.176Z,66.10
2022-09-02T15:18:25.580Z,65.60
2022-09-02T15:20:54.173Z,65.90
2022-09-02T15:23:22.386Z,66.40
2022-09-02T15:25:49.686Z,66.10
2022-09-02T15:28:16.872Z,66.40
2022-09-02T15:30:44.195Z,66.40
2022-09-02T15:33:14.685Z,65.00
2022-09-02T15:35:47.573Z,65.10
2022-09-02T15:38:15.194Z,64.90
2022-09-02T15:40:42.660Z,64.20
2022-09-02T15:43:10.044Z,64.10
2022-09-02T15:45:47.325Z,64.60
2022-09-02T15:48:14.972Z,64.20
2022-09-02T15:50:42.969Z,63.50
2022-09-02T15:53:15.015Z,64.60
2022-09-02T15:55:42.214Z,64.90
2022-09-02T15:58:10.228Z,65.80
2022-09-02T16:00:37.500Z,65.90
2022-09-02T16:03:04.969Z,66.50
2022-09-02T16:05:32.428Z,66.60
2022-09-02T16:07:59.733Z,66.70
2022-09-02T16:10:27.133Z,67.30
2022-09-02T16:12:54.305Z,66.70
2022-09-02T16:15:21.459Z,66.60
2022-09-02T16:17:50.200Z,67.20
2022-09-02T16:20:21.091Z,67.20
2022-09-02T16:22:49.425Z,65.90
2022-09-02T16:25:16.836Z,66.70
2022-09-02T16:27:53.225Z,66.00
2022-09-02T16:30:21.423Z,64.80
2022-09-02T16:32:50.712Z,65.10
2022-09-02T16:35:17.937Z,64.10
2022-09-02T16:37:45.354Z,64.60
2022-09-02T16:40:21.114Z,65.40
2022-09-02T16:42:48.896Z,65.30
2022-09-02T16:45:16.167Z,65.50
2022-09-02T16:47:43.458Z,64.70
2022-09-02T16:50:12.624Z,64.10
2022-09-02T16:52:41.125Z,63.90
2022-09-02T16:55:08.637Z,64.40
2022-09-02T16:57:35.746Z,65.00
2022-09-02T17:00:04.791Z,65.50
2022-09-02T17:02:31.906Z,65.40
2022-09-02T17:04:59.207Z,65.10
2022-09-02T17:07:26.315Z,64.60
2022-09-02T17:09:53.514Z,65.10
2022-09-02T17:12:20.707Z,64.90
2022-09-02T17:14:47.901Z,65.10
2022-09-02T17:17:17.130Z,65.10
2022-09-02T17:19:44.414Z,65.30
2022-09-02T17:22:12.040Z,65.50
2022-09-02T17:24:41.952Z,65.30
2022-09-02T17:27:09.461Z,65.80
2022-09-02T17:29:52.199Z,65.60
2022-09-02T17:32:20.338Z,68.80
2022-09-02T17:34:49.871Z,73.20
2022-09-02T17:37:17.221Z,72.90
2022-09-02T17:39:45.031Z,74.50
2022-09-02T17:42:14.221Z,75.70
2022-09-02T17:44:42.759Z,76.00
2022-09-02T17:47:11.156Z,74.90
2022-09-02T17:49:41.272Z,75.30
2022-09-02T17:52:09.277Z,74.50
2022-09-02T17:54:38.279Z,75.10
2022-09-02T17:57:08.907Z,76.10
2022-09-02T17:59:41.974Z,75.80
2022-09-02T18:02:15.164Z,77.30
2022-09-02T18:04:42.350Z,77.70
2022-09-02T18:08:01.194Z,78.50
2022-09-02T18:10:37.161Z,79.00
2022-09-02T18:13:08.041Z,78.80
2022-09-02T18:16:03.903Z,78.20
2022-09-02T18:18:31.346Z,77.70
2022-09-02T18:21:11.730Z,78.70
2022-09-02T18:23:59.902Z,79.00
2022-09-02T18:26:29.751Z,79.00
2022-09-02T18:29:16.229Z,80.20
2022-09-02T18:31:50.297Z,79.30
2022-09-02T18:34:44.908Z,79.40
2022-09-02T18:37:48.460Z,81.10
2022-09-02T18:40:27.528Z,79.30
2022-09-02T18:43:07.454Z,80.10
2022-09-02T18:45:51.684Z,79.60
2022-09-02T18:48:23.647Z,80.70
2022-09-02T18:51:04.060Z,79.60
2022-09-02T18:53:36.826Z,80.30
2022-09-02T18:56:09.081Z,79.20
2022-09-02T18:58:44.656Z,79.90
2022-09-02T19:01:30.165Z,79.20
2022-09-02T19:04:00.594Z,79.30
2022-09-02T19:06:34.338Z,79.60
2022-09-02T19:09:06.430Z,79.30
2022-09-02T19:11:35.616Z,80.00
2022-09-02T19:14:19.205Z,79.50
2022-09-02T19:16:46.691Z,79.20
2022-09-02T19:19:16.518Z,79.40
2022-09-02T19:21:56.456Z,79.90
2022-09-02T19:24:39.409Z,80.20
2022-09-02T19:27:10.760Z,80.00
2022-09-02T19:29:42.885Z,79.50
2022-09-02T19:32:12.250Z,79.90
2022-09-02T19:34:43.602Z,79.90
2022-09-02T19:37:11.941Z,80.50
2022-09-02T19:39:42.307Z,80.20
2022-09-02T19:42:10.556Z,80.50
2022-09-02T19:44:40.057Z,80.30
2022-09-02T19:47:56.090Z,80.00
2022-09-02T19:49:57.499Z,80.40
2022-09-02T19:52:24.694Z,80.10
2022-09-02T19:54:52.020Z,80.50
2022-09-02T19:57:19.202Z,80.60
2022-09-02T19:59:46.818Z,80.00
2022-09-02T20:02:15.204Z,80.10
2022-09-02T20:04:43.850Z,80.00
2022-09-02T20:07:11.459Z,80.50
2022-09-02T20:09:38.642Z,80.00
2022-09-02T20:12:05.852Z,80.00
2022-09-02T20:14:35.120Z,79.80
2022-09-02T20:17:05.324Z,79.90
2022-09-02T20:19:33.295Z,80.10
2022-09-02T20:22:01.139Z,79.90
2022-09-02T20:24:31.655Z,79.90
2022-09-02T20:27:21.647Z,80.30
2022-09-02T20:30:03.411Z,80.00
2022-09-02T20:32:52.131Z,79.90
2022-09-02T20:35:45.611Z,80.50
2022-09-02T20:38:56.006Z,80.40
2022-09-02T20:41:31.690Z,79.30
2022-09-02T20:44:23.697Z,78.40
2022-09-02T20:47:14.415Z,79.10
2022-09-02T20:50:00.725Z,78.50
2022-09-02T20:52:56.522Z,78.00
2022-09-02T20:55:31.867Z,77.90
2022-09-02T20:58:16.571Z,77.70
2022-09-02T21:01:04.218Z,76.90
2022-09-02T21:03:54.219Z,76.70
2022-09-02T21:06:26.885Z,76.40
2022-09-02T21:09:23.666Z,76.00
2022-09-02T21:12:03.328Z,76.00
2022-09-02T21:14:45.640Z,75.60
2022-09-02T21:17:39.457Z,75.60
2022-09-02T21:20:41.808Z,74.90
2022-09-02T21:23:20.634Z,73.90
2022-09-02T21:25:57.255Z,73.30
2022-09-02T21:28:40.618Z,73.50
2022-09-02T21:31:23.303Z,73.30
2022-09-02T21:33:52.834Z,72.50
2022-09-02T21:36:25.895Z,72.70
2022-09-02T21:38:56.436Z,73.00
2022-09-02T21:42:00.577Z,72.60
2022-09-02T21:44:41.267Z,72.10
2022-09-02T21:47:25.575Z,72.50
2022-09-02T21:49:59.268Z,71.90
2022-09-02T21:52:31.960Z,72.70
2022-09-02T21:55:06.937Z,72.50
2022-09-02T21:57:37.593Z,72.60
2022-09-02T22:00:11.750Z,72.50
2022-09-02T22:03:18.072Z,72.90
2022-09-02T22:06:00.398Z,72.70
2022-09-02T22:08:32.218Z,72.20
2022-09-02T22:11:33.268Z,72.50
2022-09-02T22:14:09.997Z,72.20
2022-09-02T22:16:54.579Z,72.30
2022-09-02T22:19:29.960Z,72.40
2022-09-02T22:22:09.032Z,71.60
2022-09-02T22:24:37.505Z,71.80
2022-09-02T22:27:17.175Z,72.30
2022-09-02T22:29:50.932Z,72.40
2022-09-02T22:32:21.883Z,72.00
2022-09-02T22:35:03.861Z,71.90
2022-09-02T22:37:40.276Z,72.10
2022-09-02T22:40:14.953Z,72.00
2022-09-02T22:42:44.359Z,72.10
2022-09-02T22:45:39.931Z,71.80
2022-09-02T22:49:05.214Z,71.70
2022-09-02T22:52:08.651Z,71.60
2022-09-02T22:54:36.074Z,72.00
2022-09-02T22:57:52.058Z,71.90
2022-09-02T23:00:20.688Z,72.20
2022-09-02T23:02:52.771Z,72.10
2022-09-02T23:05:45.228Z,72.00
2022-09-02T23:08:20.493Z,71.80
2022-09-02T23:10:57.306Z,71.80
2022-09-02T23:13:53.331Z,71.90
2022-09-02T23:16:39.914Z,72.10
2022-09-02T23:19:34.885Z,71.90
2022-09-02T23:22:25.317Z,72.00
2022-09-02T23:25:20.360Z,72.00
2022-09-02T23:27:55.952Z,72.10
2022-09-02T23:30:23.213Z,72.20
2022-09-02T23:33:11.822Z,72.30
2022-09-02T23:35:59.939Z,72.50
2022-09-02T23:38:53.118Z,72.60
2022-09-02T23:41:20.397Z,72.80
2022-09-02T23:43:47.711Z,72.80
2022-09-02T23:46:31.848Z,73.20
2022-09-02T23:49:38.013Z,73.30
2022-09-02T23:52:29.150Z,73.40
2022-09-02T23:55:24.080Z,74.10
2022-09-02T23:58:03.800Z,74.20
